Savana De La Mar, Dominican Republic
Current Conditions -  °F | °C
As of 4:00 PM on Monday 24 Nov 2014 (Local Time) from MDCY Reporting Station
Scattered Clouds Scattered Clouds  
Wind Chill: 86°   Ceiling: Unl
Heat Index: 99°   Visibility: 6mi
Dew Point: 79°   Wind: 7mph
Humidity: 79%   Direction: 130°SE
Pressure: 29.94"   Gusts: NA
Location:  19.05°N, 69.38°W
Report Text: MDCY 242000Z 13006KT 9999 SCT018 30/26 Q1014
Loading
Personal Weather Stations






























Interactive Weather Map New forecast layout! Learn more

10-Day Weather Forecast

Advertisements
Track Severe Weather on mobile